createdAt,value
2022-11-09T00:00:06.384Z,1001.06
2022-11-09T00:01:06.429Z,1001.07
2022-11-09T00:02:06.439Z,1001.12
2022-11-09T00:03:06.459Z,1001.12
2022-11-09T00:04:06.495Z,1001.09
2022-11-09T00:05:06.509Z,1001.11
2022-11-09T00:06:06.534Z,1001.08
2022-11-09T00:07:06.609Z,1001.04
2022-11-09T00:08:06.581Z,1001.05
2022-11-09T00:09:08.124Z,1001.06
2022-11-09T00:10:06.709Z,1001.06
2022-11-09T00:11:06.658Z,1001.09
2022-11-09T00:12:06.678Z,1001.08
2022-11-09T00:13:06.705Z,1001.05
2022-11-09T00:14:06.738Z,1001.07
2022-11-09T00:15:06.755Z,1001.05
2022-11-09T00:16:06.778Z,1001.06
2022-11-09T00:17:06.804Z,1001.05
2022-11-09T00:18:06.824Z,1001.07
2022-11-09T00:19:06.850Z,1001.06
2022-11-09T00:20:06.873Z,1001.05
2022-11-09T00:21:06.901Z,1001.06
2022-11-09T00:22:06.927Z,1001.02
2022-11-09T00:23:06.949Z,1001.01
2022-11-09T00:24:06.981Z,1001.01
2022-11-09T00:25:06.999Z,1001.04
2022-11-09T00:26:07.023Z,1001.07
2022-11-09T00:27:07.049Z,1001.04
2022-11-09T00:28:07.077Z,1001.03
2022-11-09T00:29:07.097Z,1001.03
2022-11-09T00:30:07.123Z,1001.05
2022-11-09T00:31:07.151Z,1001.03
2022-11-09T00:32:07.173Z,1000.98
2022-11-09T00:33:07.195Z,1001.01
2022-11-09T00:34:07.219Z,1000.94
2022-11-09T00:35:07.268Z,1001.05
2022-11-09T00:36:07.268Z,1001.01
2022-11-09T00:37:07.304Z,1001.00
2022-11-09T00:38:07.395Z,1001.03
2022-11-09T00:39:07.353Z,1000.98
2022-11-09T00:40:07.376Z,1000.97
2022-11-09T00:41:07.400Z,1000.97
2022-11-09T00:42:07.420Z,1000.95
2022-11-09T00:43:07.446Z,1000.98
2022-11-09T00:44:07.468Z,1001.02
2022-11-09T00:45:07.504Z,1000.97
2022-11-09T00:46:07.525Z,1000.97
2022-11-09T00:47:07.541Z,1000.95
2022-11-09T00:48:07.568Z,1000.93
2022-11-09T00:49:07.591Z,1000.96
2022-11-09T00:50:07.616Z,1000.94
2022-11-09T00:51:07.640Z,1000.93
2022-11-09T00:52:07.672Z,1000.94
2022-11-09T00:53:07.694Z,1000.95
2022-11-09T00:54:07.726Z,1000.96
2022-11-09T00:55:07.751Z,1000.96
2022-11-09T00:56:07.791Z,1000.96
2022-11-09T00:57:07.790Z,1000.97
2022-11-09T00:58:07.821Z,1000.99
2022-11-09T00:59:07.850Z,1000.99
2022-11-09T01:00:07.872Z,1000.98
2022-11-09T01:01:07.937Z,1000.98
2022-11-09T01:02:07.916Z,1001.05
2022-11-09T01:03:07.937Z,1001.02
2022-11-09T01:04:07.961Z,1001.05
2022-11-09T01:05:07.996Z,1001.01
2022-11-09T01:06:08.017Z,1001.01
2022-11-09T01:07:08.110Z,1001.02
2022-11-09T01:08:08.063Z,1001.01
2022-11-09T01:09:08.089Z,1000.98
2022-11-09T01:10:08.116Z,1001.00
2022-11-09T01:11:08.144Z,1001.03
2022-11-09T01:12:08.163Z,1000.99
2022-11-09T01:13:08.186Z,1000.99
2022-11-09T01:14:08.208Z,1000.98
2022-11-09T01:15:08.234Z,1000.99
2022-11-09T01:16:08.260Z,1001.01
2022-11-09T01:17:08.284Z,1001.07
2022-11-09T01:18:08.308Z,1001.03
2022-11-09T01:19:08.334Z,1001.05
2022-11-09T01:20:08.357Z,1001.04
2022-11-09T01:21:08.386Z,1000.99
2022-11-09T01:22:08.419Z,1000.98
2022-11-09T01:23:08.429Z,1000.94
2022-11-09T01:24:08.456Z,1000.97
2022-11-09T01:25:08.485Z,1000.97
2022-11-09T01:26:08.506Z,1000.94
2022-11-09T01:27:08.532Z,1000.94
2022-11-09T01:28:08.557Z,1000.96
2022-11-09T01:29:08.584Z,1000.94
2022-11-09T01:30:08.609Z,1000.99
2022-11-09T01:31:08.631Z,1000.94
2022-11-09T01:32:08.657Z,1000.97
2022-11-09T01:33:08.678Z,1000.94
2022-11-09T01:34:08.744Z,1000.97
2022-11-09T01:35:08.731Z,1000.95
2022-11-09T01:36:08.755Z,1000.92
2022-11-09T01:37:08.781Z,1000.95
2022-11-09T01:38:08.802Z,1000.91
2022-11-09T01:39:08.834Z,1000.94
2022-11-09T01:40:08.850Z,1000.94
2022-11-09T01:41:08.882Z,1000.92
2022-11-09T01:42:08.904Z,1000.91
2022-11-09T01:43:08.928Z,1000.95
2022-11-09T01:44:08.955Z,1000.89
2022-11-09T01:45:08.978Z,1000.92
2022-11-09T01:46:09.006Z,1000.91
2022-11-09T01:47:09.030Z,1000.92
2022-11-09T01:48:09.059Z,1000.96
2022-11-09T01:49:09.078Z,1000.93
2022-11-09T01:50:09.099Z,1000.99
2022-11-09T01:51:09.129Z,1001.01
2022-11-09T01:52:09.158Z,1001.04
2022-11-09T01:53:09.176Z,1001.01
2022-11-09T01:54:09.200Z,1001.01
2022-11-09T01:55:09.226Z,1000.96
2022-11-09T01:56:09.349Z,1000.98
2022-11-09T01:57:09.279Z,1000.97
2022-11-09T01:58:09.302Z,1000.91
2022-11-09T01:59:09.327Z,1000.90
2022-11-09T02:00:09.355Z,1000.86
2022-11-09T02:01:09.536Z,1000.89
2022-11-09T02:02:09.402Z,1000.88
2022-11-09T02:03:09.424Z,1000.90
2022-11-09T02:04:09.448Z,1000.85
2022-11-09T02:05:09.474Z,1000.86
2022-11-09T02:06:09.498Z,1000.83
2022-11-09T02:07:09.575Z,1000.80
2022-11-09T02:08:09.547Z,1000.82
2022-11-09T02:09:09.573Z,1000.83
2022-11-09T02:10:09.599Z,1000.87
2022-11-09T02:11:09.646Z,1000.86
2022-11-09T02:12:09.644Z,1000.91
2022-11-09T02:13:09.673Z,1000.88
2022-11-09T02:14:09.694Z,1000.88
2022-11-09T02:15:09.720Z,1000.90
2022-11-09T02:16:09.743Z,1000.91
2022-11-09T02:17:09.771Z,1000.88
2022-11-09T02:18:09.787Z,1000.90
2022-11-09T02:19:09.817Z,1000.92
2022-11-09T02:20:09.842Z,1000.91
2022-11-09T02:21:09.867Z,1000.91
2022-11-09T02:22:09.891Z,1000.88
2022-11-09T02:23:09.921Z,1000.88
2022-11-09T02:24:09.942Z,1000.87
2022-11-09T02:25:17.135Z,1000.87
2022-11-09T02:27:14.455Z,1000.88
2022-11-09T02:29:45.656Z,1000.84
2022-11-09T02:30:45.681Z,1000.85
2022-11-09T02:32:50.157Z,1000.85
2022-11-09T02:33:49.733Z,1000.82
2022-11-09T02:35:53.730Z,1000.79
2022-11-09T02:36:53.743Z,1000.76
2022-11-09T02:38:58.264Z,1000.74
2022-11-09T02:39:57.776Z,1000.74
2022-11-09T02:42:03.377Z,1000.72
2022-11-09T02:43:01.817Z,1000.74
2022-11-09T02:45:07.823Z,1000.74
2022-11-09T02:46:05.841Z,1000.72
2022-11-09T02:48:09.853Z,1000.70
2022-11-09T02:49:09.864Z,1000.68
2022-11-09T02:51:03.345Z,1000.73
2022-11-09T02:52:02.815Z,1000.70
2022-11-09T02:54:06.849Z,1000.73
2022-11-09T02:55:06.872Z,1000.71
2022-11-09T02:57:11.359Z,1000.75
2022-11-09T02:58:10.904Z,1000.75
2022-11-09T03:00:14.921Z,1000.72
2022-11-09T03:01:14.959Z,1000.74
2022-11-09T03:03:19.853Z,1000.73
2022-11-09T03:04:18.971Z,1000.77
2022-11-09T03:06:23.001Z,1000.74
2022-11-09T03:07:23.008Z,1000.77
2022-11-09T03:09:27.512Z,1000.75
2022-11-09T03:10:27.053Z,1000.73
2022-11-09T03:12:31.075Z,1000.74
2022-11-09T03:13:31.082Z,1000.77
2022-11-09T03:15:35.573Z,1000.78
2022-11-09T03:16:35.118Z,1000.73
2022-11-09T03:18:39.154Z,1000.79
2022-11-09T03:19:39.150Z,1000.80
2022-11-09T03:21:43.639Z,1000.77
2022-11-09T03:22:43.187Z,1000.79
2022-11-09T03:23:43.213Z,1000.84
2022-11-09T03:24:43.237Z,1000.80
2022-11-09T03:25:43.276Z,1000.81
2022-11-09T03:26:43.286Z,1000.76
2022-11-09T03:27:43.313Z,1000.71
2022-11-09T03:28:43.333Z,1000.75
2022-11-09T03:29:43.358Z,1000.74
2022-11-09T03:30:43.393Z,1000.67
2022-11-09T03:31:43.405Z,1000.71
2022-11-09T03:32:48.056Z,1000.76
2022-11-09T03:33:43.457Z,1000.78
2022-11-09T03:34:43.482Z,1000.83
2022-11-09T03:35:43.507Z,1000.81
2022-11-09T03:36:43.533Z,1000.83
2022-11-09T03:37:43.610Z,1000.84
2022-11-09T03:38:43.581Z,1000.79
2022-11-09T03:39:43.602Z,1000.81
2022-11-09T03:40:43.624Z,1000.78
2022-11-09T03:41:43.649Z,1000.82
2022-11-09T03:42:43.678Z,1000.80
2022-11-09T03:43:43.703Z,1000.81
2022-11-09T03:44:43.722Z,1000.81
2022-11-09T03:45:43.745Z,1000.81
2022-11-09T03:46:43.776Z,1000.79
2022-11-09T03:47:43.795Z,1000.84
2022-11-09T03:48:43.819Z,1000.79
2022-11-09T03:49:43.843Z,1000.80
2022-11-09T03:50:43.884Z,1000.84
2022-11-09T03:51:43.891Z,1000.87
2022-11-09T03:52:43.921Z,1000.85
2022-11-09T03:53:43.938Z,1000.88
2022-11-09T03:54:43.960Z,1000.88
2022-11-09T03:55:43.986Z,1000.89
2022-11-09T03:56:44.009Z,1000.91
2022-11-09T03:57:44.034Z,1000.91
2022-11-09T03:58:44.058Z,1000.91
2022-11-09T03:59:44.081Z,1000.94
2022-11-09T04:00:44.110Z,1000.91
2022-11-09T04:01:44.181Z,1000.91
2022-11-09T04:02:44.151Z,1000.89
2022-11-09T04:03:44.177Z,1000.91
2022-11-09T04:04:44.202Z,1000.92
2022-11-09T04:05:44.222Z,1000.94
2022-11-09T04:06:44.300Z,1000.97
2022-11-09T04:07:44.274Z,1000.97
2022-11-09T04:08:49.927Z,1001.04
2022-11-09T04:09:44.320Z,1001.04
2022-11-09T04:10:44.344Z,1001.07
2022-11-09T04:11:44.379Z,1001.09
2022-11-09T04:12:44.389Z,1001.08
2022-11-09T04:13:44.412Z,1001.05
2022-11-09T04:14:44.441Z,1001.06
2022-11-09T04:15:44.464Z,1001.06
2022-11-09T04:16:44.489Z,1001.09
2022-11-09T04:17:44.514Z,1001.06
2022-11-09T04:18:44.539Z,1001.10
2022-11-09T04:19:44.556Z,1001.12
2022-11-09T04:20:44.594Z,1001.14
2022-11-09T04:21:44.627Z,1001.12
2022-11-09T04:22:44.634Z,1001.12
2022-11-09T04:23:44.657Z,1001.14
2022-11-09T04:24:44.681Z,1001.09
2022-11-09T04:25:44.705Z,1001.07
2022-11-09T04:26:44.729Z,1001.13
2022-11-09T04:27:44.750Z,1001.10
2022-11-09T04:28:44.777Z,1001.09
2022-11-09T04:29:44.800Z,1001.08
2022-11-09T04:30:44.829Z,1001.08
2022-11-09T04:31:44.900Z,1001.11
2022-11-09T04:32:44.874Z,1001.11
2022-11-09T04:33:44.902Z,1001.10
2022-11-09T04:34:44.923Z,1001.14
2022-11-09T04:35:44.939Z,1001.14
2022-11-09T04:36:44.966Z,1001.13
2022-11-09T04:37:44.993Z,1001.13
2022-11-09T04:38:45.052Z,1001.12
2022-11-09T04:39:45.037Z,1001.11
2022-11-09T04:40:45.063Z,1001.14
2022-11-09T04:41:45.089Z,1001.14
2022-11-09T04:42:45.110Z,1001.17
2022-11-09T04:43:45.139Z,1001.15
2022-11-09T04:44:45.162Z,1001.22
2022-11-09T04:45:45.189Z,1001.19
2022-11-09T04:46:45.216Z,1001.18
2022-11-09T04:47:45.245Z,1001.20
2022-11-09T04:48:45.259Z,1001.20
2022-11-09T04:49:45.276Z,1001.20
2022-11-09T04:50:45.307Z,1001.25
2022-11-09T04:51:45.330Z,1001.24
2022-11-09T04:52:45.355Z,1001.24
2022-11-09T04:53:45.374Z,1001.20
2022-11-09T04:54:45.402Z,1001.19
2022-11-09T04:55:45.425Z,1001.19
2022-11-09T04:56:45.451Z,1001.16
2022-11-09T04:57:45.475Z,1001.16
2022-11-09T04:58:45.496Z,1001.19
2022-11-09T04:59:45.523Z,1001.16
2022-11-09T05:00:45.550Z,1001.17
2022-11-09T05:01:45.567Z,1001.22
2022-11-09T05:02:45.597Z,1001.14
2022-11-09T05:03:45.753Z,1001.18
2022-11-09T05:04:45.642Z,1001.20
2022-11-09T05:05:48.546Z,1001.15
2022-11-09T05:06:45.789Z,1001.18
2022-11-09T05:07:45.718Z,1001.15
2022-11-09T05:08:45.740Z,1001.20
2022-11-09T05:09:45.771Z,1001.17
2022-11-09T05:10:45.812Z,1001.19
2022-11-09T05:11:45.813Z,1001.15
2022-11-09T05:12:46.197Z,1001.20
2022-11-09T05:13:45.862Z,1001.11
2022-11-09T05:14:45.882Z,1001.16
2022-11-09T05:15:45.920Z,1001.14
2022-11-09T05:16:45.937Z,1001.11
2022-11-09T05:17:45.958Z,1001.17
2022-11-09T05:18:45.990Z,1001.19
2022-11-09T05:19:46.009Z,1001.16
2022-11-09T05:20:46.034Z,1001.18
2022-11-09T05:21:46.074Z,1001.17
2022-11-09T05:22:46.089Z,1001.14
2022-11-09T05:23:46.113Z,1001.15
2022-11-09T05:24:46.136Z,1001.17
2022-11-09T05:25:46.163Z,1001.17
2022-11-09T05:26:46.191Z,1001.20
2022-11-09T05:27:46.210Z,1001.16
2022-11-09T05:28:46.231Z,1001.18
2022-11-09T05:29:46.252Z,1001.17
2022-11-09T05:30:46.317Z,1001.17
2022-11-09T05:31:51.843Z,1001.19
2022-11-09T05:32:46.328Z,1001.21
2022-11-09T05:33:46.352Z,1001.22
2022-11-09T05:34:46.381Z,1001.25
2022-11-09T05:35:46.437Z,1001.27
2022-11-09T05:36:46.437Z,1001.27
2022-11-09T05:37:46.447Z,1001.24
2022-11-09T05:38:46.510Z,1001.34
2022-11-09T05:39:46.514Z,1001.31
2022-11-09T05:40:46.536Z,1001.30
2022-11-09T05:41:46.553Z,1001.31
2022-11-09T05:42:46.587Z,1001.31
2022-11-09T05:43:46.631Z,1001.30
2022-11-09T05:44:46.620Z,1001.31
2022-11-09T05:45:46.684Z,1001.26
2022-11-09T05:46:46.668Z,1001.30
2022-11-09T05:47:46.724Z,1001.30
2022-11-09T05:48:46.739Z,1001.29
2022-11-09T05:49:46.755Z,1001.26
2022-11-09T05:50:46.808Z,1001.31
2022-11-09T05:51:46.802Z,1001.31
2022-11-09T05:52:46.815Z,1001.31
2022-11-09T05:53:47.303Z,1001.27
2022-11-09T05:54:46.870Z,1001.27
2022-11-09T05:55:46.941Z,1001.30
2022-11-09T05:56:46.926Z,1001.30
2022-11-09T05:57:46.944Z,1001.34
2022-11-09T05:58:46.965Z,1001.33
2022-11-09T05:59:46.993Z,1001.33
2022-11-09T06:00:47.016Z,1001.32
2022-11-09T06:01:47.103Z,1001.30
2022-11-09T06:02:47.097Z,1001.30
2022-11-09T06:03:47.091Z,1001.35
2022-11-09T06:04:47.114Z,1001.32
2022-11-09T06:05:47.166Z,1001.29
2022-11-09T06:06:47.287Z,1001.32
2022-11-09T06:07:47.228Z,1001.29
2022-11-09T06:08:47.225Z,1001.31
2022-11-09T06:09:47.233Z,1001.31
2022-11-09T06:10:47.295Z,1001.36
2022-11-09T06:11:47.286Z,1001.40
2022-11-09T06:12:47.329Z,1001.42
2022-11-09T06:13:47.367Z,1001.48
2022-11-09T06:14:47.368Z,1001.53
2022-11-09T06:15:47.412Z,1001.51
2022-11-09T06:16:47.406Z,1001.50
2022-11-09T06:17:47.428Z,1001.47
2022-11-09T06:18:47.474Z,1001.39
2022-11-09T06:19:47.484Z,1001.45
2022-11-09T06:20:47.502Z,1001.51
2022-11-09T06:21:47.562Z,1001.52
2022-11-09T06:22:47.549Z,1001.52
2022-11-09T06:23:47.625Z,1001.53
2022-11-09T06:24:47.599Z,1001.55
2022-11-09T06:25:47.629Z,1001.56
2022-11-09T06:26:47.686Z,1001.57
2022-11-09T06:27:47.679Z,1001.54
2022-11-09T06:28:47.699Z,1001.57
2022-11-09T06:29:47.719Z,1001.53
2022-11-09T06:30:47.784Z,1001.59
2022-11-09T06:31:47.773Z,1001.56
2022-11-09T06:32:47.797Z,1001.60
2022-11-09T06:33:47.856Z,1001.63
2022-11-09T06:34:47.856Z,1001.59
2022-11-09T06:35:52.108Z,1001.65
2022-11-09T06:36:47.903Z,1001.60
2022-11-09T06:37:47.955Z,1001.62
2022-11-09T06:38:47.950Z,1001.67
2022-11-09T06:39:47.972Z,1001.65
2022-11-09T06:40:48.002Z,1001.65
2022-11-09T06:41:48.024Z,1001.69
2022-11-09T06:42:48.129Z,1001.72
2022-11-09T06:43:48.073Z,1001.70
2022-11-09T06:44:48.081Z,1001.71
2022-11-09T06:45:48.110Z,1001.70
2022-11-09T06:46:48.148Z,1001.76
2022-11-09T06:47:48.162Z,1001.78
2022-11-09T06:48:53.319Z,1001.81
2022-11-09T06:49:48.232Z,1001.81
2022-11-09T06:50:48.246Z,1001.85
2022-11-09T06:51:48.261Z,1001.86
2022-11-09T06:52:48.280Z,1001.90
2022-11-09T06:53:48.305Z,1001.89
2022-11-09T06:54:48.333Z,1001.87
2022-11-09T06:55:50.817Z,1001.90
2022-11-09T06:56:48.384Z,1001.87
2022-11-09T06:57:48.411Z,1001.85
2022-11-09T06:58:48.431Z,1001.87
2022-11-09T06:59:48.451Z,1001.87
2022-11-09T07:00:48.472Z,1001.88
2022-11-09T07:01:48.564Z,1001.89
2022-11-09T07:02:48.531Z,1001.91
2022-11-09T07:03:48.544Z,1001.89
2022-11-09T07:04:48.567Z,1001.86
2022-11-09T07:05:48.597Z,1001.84
2022-11-09T07:06:48.650Z,1001.78
2022-11-09T07:07:48.644Z,1001.81
2022-11-09T07:08:48.673Z,1001.79
2022-11-09T07:09:48.690Z,1001.75
2022-11-09T07:10:48.714Z,1001.73
2022-11-09T07:11:48.744Z,1001.76
2022-11-09T07:12:48.762Z,1001.79
2022-11-09T07:13:51.294Z,1001.79
2022-11-09T07:14:48.814Z,1001.82
2022-11-09T07:15:48.833Z,1001.81
2022-11-09T07:16:48.856Z,1001.80
2022-11-09T07:17:48.879Z,1001.84
2022-11-09T07:18:48.906Z,1001.78
2022-11-09T07:19:48.932Z,1001.81
2022-11-09T07:20:48.974Z,1001.78
2022-11-09T07:21:48.982Z,1001.77
2022-11-09T07:22:49.008Z,1001.81
2022-11-09T07:23:49.029Z,1001.81
2022-11-09T07:24:49.068Z,1001.81
2022-11-09T07:25:49.080Z,1001.82
2022-11-09T07:26:49.112Z,1001.85
2022-11-09T07:27:49.130Z,1001.78
2022-11-09T07:28:49.160Z,1001.84
2022-11-09T07:29:49.161Z,1001.85
2022-11-09T07:30:49.197Z,1001.85
2022-11-09T07:31:49.215Z,1001.86
2022-11-09T07:33:16.109Z,1001.88
2022-11-09T07:33:49.257Z,1001.90
2022-11-09T07:34:49.284Z,1001.94
2022-11-09T07:35:49.317Z,1001.93
2022-11-09T07:36:49.335Z,1001.94
2022-11-09T07:37:49.356Z,1001.97
2022-11-09T07:38:49.380Z,1001.98
2022-11-09T07:39:49.416Z,1001.97
2022-11-09T07:40:49.429Z,1002.00
2022-11-09T07:41:49.463Z,1001.99
2022-11-09T07:42:49.472Z,1002.00
2022-11-09T07:43:49.497Z,1001.96
2022-11-09T07:44:49.521Z,1001.98
2022-11-09T07:45:49.573Z,1001.97
2022-11-09T07:46:49.568Z,1002.01
2022-11-09T07:47:49.594Z,1002.01
2022-11-09T07:48:49.617Z,1002.05
2022-11-09T07:49:49.636Z,1002.06
2022-11-09T07:50:49.674Z,1002.05
2022-11-09T07:51:49.692Z,1002.12
2022-11-09T07:52:49.712Z,1002.10
2022-11-09T07:53:49.735Z,1002.11
2022-11-09T07:54:52.349Z,1002.18
2022-11-09T07:55:49.783Z,1002.12
2022-11-09T07:56:49.817Z,1002.13
2022-11-09T07:57:49.840Z,1002.13
2022-11-09T07:58:49.855Z,1002.17
2022-11-09T07:59:49.883Z,1002.18
2022-11-09T08:00:49.941Z,1002.16
2022-11-09T08:01:50.035Z,1002.15
2022-11-09T08:02:49.953Z,1002.13
2022-11-09T08:03:49.982Z,1002.16
2022-11-09T08:04:49.993Z,1002.19
2022-11-09T08:05:50.053Z,1002.20
2022-11-09T08:06:50.112Z,1002.20
2022-11-09T08:07:50.069Z,1002.23
2022-11-09T08:08:50.097Z,1002.21
2022-11-09T08:09:50.117Z,1002.20
2022-11-09T08:10:50.138Z,1002.17
2022-11-09T08:11:50.200Z,1002.18
2022-11-09T08:12:50.184Z,1002.21
2022-11-09T08:13:50.207Z,1002.23
2022-11-09T08:14:50.232Z,1002.25
2022-11-09T08:15:50.266Z,1002.26
2022-11-09T08:16:50.309Z,1002.22
2022-11-09T08:17:50.343Z,1002.27
2022-11-09T08:18:50.330Z,1002.32
2022-11-09T08:19:50.357Z,1002.23
2022-11-09T08:20:50.390Z,1002.27
2022-11-09T08:21:50.403Z,1002.27
2022-11-09T08:22:50.428Z,1002.24
2022-11-09T08:23:50.449Z,1002.25
2022-11-09T08:24:50.483Z,1002.24
2022-11-09T08:25:50.511Z,1002.29
2022-11-09T08:26:50.530Z,1002.28
2022-11-09T08:27:50.548Z,1002.28
2022-11-09T08:28:50.579Z,1002.31
2022-11-09T08:29:50.603Z,1002.31
2022-11-09T08:30:50.618Z,1002.30
2022-11-09T08:31:50.644Z,1002.33
2022-11-09T08:32:50.664Z,1002.32
2022-11-09T08:33:50.689Z,1002.30
2022-11-09T08:34:50.712Z,1002.33
2022-11-09T08:35:53.376Z,1002.36
2022-11-09T08:36:50.758Z,1002.35
2022-11-09T08:37:50.790Z,1002.38
2022-11-09T08:38:50.808Z,1002.39
2022-11-09T08:39:50.840Z,1002.38
2022-11-09T08:40:50.872Z,1002.41
2022-11-09T08:41:50.877Z,1002.36
2022-11-09T08:42:50.906Z,1002.42
2022-11-09T08:43:50.966Z,1002.41
2022-11-09T08:44:50.958Z,1002.45
2022-11-09T08:45:50.980Z,1002.45
2022-11-09T08:46:50.998Z,1002.41
2022-11-09T08:47:51.030Z,1002.45
2022-11-09T08:48:51.058Z,1002.43
2022-11-09T08:49:51.075Z,1002.45
2022-11-09T08:50:51.096Z,1002.47
2022-11-09T08:51:51.146Z,1002.49
2022-11-09T08:52:51.156Z,1002.49
2022-11-09T08:53:51.169Z,1002.48
2022-11-09T08:54:51.194Z,1002.51
2022-11-09T08:55:51.215Z,1002.53
2022-11-09T08:56:58.415Z,1002.48
2022-11-09T08:58:55.757Z,1002.53
2022-11-09T08:59:55.268Z,1002.55
2022-11-09T09:01:59.312Z,1002.57
2022-11-09T09:02:59.300Z,1002.54
2022-11-09T09:05:03.801Z,1002.57
2022-11-09T09:06:03.337Z,1002.58
2022-11-09T09:08:07.345Z,1002.56
2022-11-09T09:09:07.352Z,1002.53
2022-11-09T09:11:01.833Z,1002.58
2022-11-09T09:12:00.311Z,1002.58
2022-11-09T09:14:04.326Z,1002.60
2022-11-09T09:15:04.343Z,1002.58
2022-11-09T09:17:08.836Z,1002.62
2022-11-09T09:18:08.366Z,1002.64
2022-11-09T09:20:12.396Z,1002.59
2022-11-09T09:21:12.479Z,1002.64
2022-11-09T09:23:16.893Z,1002.66
2022-11-09T09:24:16.431Z,1002.68
2022-11-09T09:26:20.448Z,1002.73
2022-11-09T09:27:20.469Z,1002.70
2022-11-09T09:29:24.960Z,1002.72
2022-11-09T09:30:24.504Z,1002.70
2022-11-09T09:32:28.529Z,1002.72
2022-11-09T09:33:28.552Z,1002.68
2022-11-09T09:35:33.035Z,1002.67
2022-11-09T09:36:32.581Z,1002.68
2022-11-09T09:38:36.592Z,1002.69
2022-11-09T09:39:36.635Z,1002.70
2022-11-09T09:41:41.107Z,1002.72
2022-11-09T09:42:40.635Z,1002.72
2022-11-09T09:44:44.653Z,1002.72
2022-11-09T09:45:44.672Z,1002.75
2022-11-09T09:47:49.164Z,1002.77
2022-11-09T09:48:48.768Z,1002.79
2022-11-09T09:50:41.683Z,1002.82
2022-11-09T09:51:41.668Z,1002.79
2022-11-09T09:53:46.164Z,1002.79
2022-11-09T09:54:45.698Z,1002.79
2022-11-09T09:56:49.712Z,1002.83
2022-11-09T09:57:49.726Z,1002.77
2022-11-09T09:59:54.225Z,1002.84
2022-11-09T10:00:53.752Z,1002.87
2022-11-09T10:02:57.769Z,1002.85
2022-11-09T10:03:57.826Z,1002.85
2022-11-09T10:06:02.273Z,1002.83
2022-11-09T10:07:01.851Z,1002.84
2022-11-09T10:09:05.834Z,1002.92
2022-11-09T10:10:05.850Z,1002.89
2022-11-09T10:12:10.347Z,1002.91
2022-11-09T10:13:09.878Z,1002.87
2022-11-09T10:15:13.919Z,1002.87
2022-11-09T10:16:13.917Z,1002.87
2022-11-09T10:18:18.533Z,1002.88
2022-11-09T10:19:17.948Z,1002.83
2022-11-09T10:21:10.897Z,1002.89
2022-11-09T10:22:10.904Z,1002.90
2022-11-09T10:24:15.400Z,1002.90
2022-11-09T10:25:38.001Z,1002.86
2022-11-09T10:27:18.960Z,1002.92
2022-11-09T10:28:19.294Z,1002.85
2022-11-09T10:30:23.506Z,1002.89
2022-11-09T10:31:23.011Z,1002.89
2022-11-09T10:33:27.040Z,1002.87
2022-11-09T10:34:27.051Z,1002.89
2022-11-09T10:36:31.554Z,1002.86
2022-11-09T10:37:31.089Z,1002.82
2022-11-09T10:39:35.105Z,1002.78
2022-11-09T10:40:35.116Z,1002.83
2022-11-09T10:42:28.596Z,1002.81
2022-11-09T10:43:28.283Z,1002.77
2022-11-09T10:45:32.329Z,1002.83
2022-11-09T10:46:32.314Z,1002.80
2022-11-09T10:48:36.829Z,1002.84
2022-11-09T10:49:36.354Z,1002.79
2022-11-09T10:51:40.383Z,1002.79
2022-11-09T10:52:44.536Z,1002.81
2022-11-09T10:54:44.880Z,1002.74
2022-11-09T10:55:44.517Z,1002.77
2022-11-09T10:57:48.436Z,1002.78
2022-11-09T10:58:48.454Z,1002.74
2022-11-09T11:00:41.931Z,1002.76
2022-11-09T11:01:41.489Z,1002.75
2022-11-09T11:03:45.437Z,1002.81
2022-11-09T11:04:45.485Z,1002.73
2022-11-09T11:06:49.989Z,1002.73
2022-11-09T11:07:49.475Z,1002.69
2022-11-09T11:09:53.514Z,1002.75
2022-11-09T11:11:06.577Z,1002.75
2022-11-09T11:12:58.007Z,1002.74
2022-11-09T11:13:57.541Z,1002.76
2022-11-09T11:16:01.569Z,1002.82
2022-11-09T11:17:01.577Z,1002.80
2022-11-09T11:18:55.075Z,1002.74
2022-11-09T11:19:54.732Z,1002.81
2022-11-09T11:21:58.750Z,1002.76
2022-11-09T11:22:58.767Z,1002.81
2022-11-09T11:25:03.261Z,1002.85
2022-11-09T11:26:02.809Z,1002.80
2022-11-09T11:28:06.829Z,1002.86
2022-11-09T11:29:06.851Z,1002.90
2022-11-09T11:31:00.482Z,1002.87
2022-11-09T11:31:59.814Z,1002.87
2022-11-09T11:34:03.825Z,1002.89
2022-11-09T11:35:03.914Z,1002.91
2022-11-09T11:37:08.337Z,1002.95
2022-11-09T11:38:07.880Z,1002.90
2022-11-09T11:40:11.897Z,1002.94
2022-11-09T11:41:11.912Z,1002.96
2022-11-09T11:43:16.406Z,1002.94
2022-11-09T11:44:15.947Z,1002.90
2022-11-09T11:46:09.085Z,1002.91
2022-11-09T11:47:09.106Z,1002.96
2022-11-09T11:49:13.603Z,1002.94
2022-11-09T11:50:13.144Z,1002.90
2022-11-09T11:52:17.164Z,1002.82
2022-11-09T11:53:17.178Z,1002.99
2022-11-09T11:55:22.171Z,1002.92
2022-11-09T11:56:21.702Z,1002.86
2022-11-09T11:57:21.732Z,1002.95
2022-11-09T11:58:21.768Z,1002.92
2022-11-09T11:59:21.782Z,1002.94
2022-11-09T12:00:21.811Z,1002.88
2022-11-09T12:01:21.837Z,1002.96
2022-11-09T12:02:21.901Z,1002.92
2022-11-09T12:03:22.219Z,1002.85
2022-11-09T12:04:21.913Z,1002.87
2022-11-09T12:05:21.942Z,1002.90
2022-11-09T12:06:21.967Z,1002.86
2022-11-09T12:07:22.131Z,1002.90
2022-11-09T12:08:22.367Z,1002.84
2022-11-09T12:09:22.048Z,1002.88
2022-11-09T12:10:22.069Z,1002.88
2022-11-09T12:11:22.095Z,1002.89
2022-11-09T12:12:22.123Z,1002.91
2022-11-09T12:13:22.636Z,1002.86
2022-11-09T12:14:22.175Z,1002.86
2022-11-09T12:15:22.199Z,1002.84
2022-11-09T12:16:22.224Z,1002.84
2022-11-09T12:17:22.255Z,1002.83
2022-11-09T12:18:22.279Z,1002.88
2022-11-09T12:19:27.074Z,1002.82
2022-11-09T12:20:22.331Z,1002.85
2022-11-09T12:21:22.389Z,1002.80
2022-11-09T12:22:22.389Z,1002.89
2022-11-09T12:23:22.811Z,1002.89
2022-11-09T12:24:22.437Z,1002.91
2022-11-09T12:25:22.465Z,1002.87
2022-11-09T12:26:24.140Z,1002.89
2022-11-09T12:27:32.207Z,1002.95
2022-11-09T12:28:22.540Z,1002.97
2022-11-09T12:29:22.564Z,1002.94
2022-11-09T12:30:22.590Z,1002.94
2022-11-09T12:31:22.618Z,1002.97
2022-11-09T12:32:22.641Z,1003.01
2022-11-09T12:33:22.989Z,1002.95
2022-11-09T12:34:22.698Z,1002.96
2022-11-09T12:35:22.732Z,1002.99
2022-11-09T12:36:22.815Z,1003.02
2022-11-09T12:37:22.779Z,1003.01
2022-11-09T12:38:23.154Z,1003.02
2022-11-09T12:39:22.824Z,1003.02
2022-11-09T12:40:22.853Z,1003.08
2022-11-09T12:41:22.877Z,1003.05
2022-11-09T12:42:22.904Z,1003.05
2022-11-09T12:43:23.314Z,1002.98
2022-11-09T12:44:22.952Z,1003.04
2022-11-09T12:45:22.981Z,1003.01
2022-11-09T12:46:23.008Z,1003.06
2022-11-09T12:47:23.035Z,1003.07
2022-11-09T12:48:23.054Z,1003.08
2022-11-09T12:49:23.085Z,1003.09
2022-11-09T12:50:23.113Z,1003.13
2022-11-09T12:51:23.136Z,1003.11
2022-11-09T12:52:23.165Z,1003.09
2022-11-09T12:53:23.733Z,1003.23
2022-11-09T12:54:23.215Z,1003.13
2022-11-09T12:55:23.239Z,1003.07
2022-11-09T12:56:23.266Z,1003.15
2022-11-09T12:57:23.295Z,1003.15
2022-11-09T12:58:23.545Z,1003.16
2022-11-09T12:59:23.343Z,1003.17
2022-11-09T13:00:23.370Z,1003.14
2022-11-09T13:01:23.429Z,1003.13
2022-11-09T13:02:23.427Z,1003.13
2022-11-09T13:03:23.552Z,1003.11
2022-11-09T13:04:23.477Z,1003.08
2022-11-09T13:05:23.499Z,1003.08
2022-11-09T13:06:23.529Z,1003.09
2022-11-09T13:07:23.558Z,1003.08
2022-11-09T13:08:23.588Z,1003.07
2022-11-09T13:09:23.617Z,1003.05
2022-11-09T13:10:23.634Z,1003.06
2022-11-09T13:11:23.660Z,1003.09
2022-11-09T13:12:23.688Z,1003.10
2022-11-09T13:13:24.054Z,1003.06
2022-11-09T13:14:23.740Z,1003.05
2022-11-09T13:15:23.769Z,1003.08
2022-11-09T13:16:23.792Z,1003.05
2022-11-09T13:17:23.832Z,1003.05
2022-11-09T13:18:23.840Z,1003.11
2022-11-09T13:19:23.873Z,1003.12
2022-11-09T13:20:52.733Z,1003.15
2022-11-09T13:21:23.925Z,1003.12
2022-11-09T13:22:23.958Z,1003.08
2022-11-09T13:23:36.245Z,1003.15
2022-11-09T13:24:24.752Z,1003.12
2022-11-09T13:25:24.045Z,1003.16
2022-11-09T13:26:24.053Z,1003.19
2022-11-09T13:27:24.078Z,1003.27